메인 페이지
METAR-TAF:

METAR-TAF

공항 :

Fort Smith, 아칸소, 미국

위도: 35-20-01N, 경도: 094-21-54W, 고도: 142m

현재 날씨관측

예보는 1 시간 3분 전, 05:53시(UTC)에 발표되었습니다.
북동4kt
온도 9°C
습도 76%
기압 1020 hPa
시정: 16.1km
맑음

METAR: KFSM 180553Z AUTO 05004KT 10SM CLR 09/05 A3012 RMK AO2 SLP197 T00890050 10150 20089 402110011 51003

시각: 00:56 (06:56 UTC)

예보

예보는 1 시간 16분 전, 05:40시(UTC)에 발표되었습니다.
예보 대상 시간: 18일 06시부터 19일 06시까지 (UTC)
여러 방향의 바람 3kt
시정: 10km
고도 20000ft 상공 구름 많음
18일 0900시부터 (UTC)
4kt
시정: 10km
고도 1500ft 상공 흐림
약한이슬비
일시적
18일 09시부터 18일 13시까지 (UTC)
시정: 8.0km
고도 800ft 상공 흐림
약한이슬비, 박무
18일 1300시부터 (UTC)
8kt
시정: 6.4km
고도 700ft 상공 흐림
약한이슬비, 박무

TAF: KFSM 180540Z 1806/1906 VRB03KT P6SM BKN200 FM180900 36004KT P6SM -DZ OVC015 TEMPO 1809/1813 5SM -DZ BR OVC008 FM181300 01008KT 4SM -DZ BR OVC007

4,000개 이상의 공항 관측 자료 및 예보 (METAR 및 TAF 보고).

지도상에서 검색 가능한 기상관측소가 노란 점과 빨간 점으로 표시되어 있습니다.

기상관측소 명을 보려면 표시 위로 마우스를 이동하세요.

날씨 관측과 예보를 보려면 클릭하세요.

지도 변경 : 확대하려면 엑스 표시가 있는 녹색 버튼, 축소하려면 빼기 표시가 있는 녹색 버튼, 다음 페이지의 지도를 보려면 녹색 화살표를 클릭하세요.


METAR-TAF: